createdAt,value
2022-10-11T00:00:32.965Z,76.73
2022-10-11T00:03:02.196Z,77.05
2022-10-11T00:05:29.131Z,77.31
2022-10-11T00:07:57.307Z,77.19
2022-10-11T00:10:24.625Z,76.71
2022-10-11T00:12:52.516Z,76.49
2022-10-11T00:15:20.354Z,76.18
2022-10-11T00:17:47.389Z,75.73
2022-10-11T00:20:14.221Z,76.01
2022-10-11T00:22:41.302Z,76.84
2022-10-11T00:25:09.057Z,76.68
2022-10-11T00:27:35.762Z,76.38
2022-10-11T00:30:02.167Z,75.97
2022-10-11T00:32:28.576Z,75.97
2022-10-11T00:34:56.116Z,75.82
2022-10-11T00:37:22.461Z,75.97
2022-10-11T00:39:49.521Z,76.64
2022-10-11T00:42:16.635Z,76.85
2022-10-11T00:44:45.524Z,76.78
2022-10-11T00:47:14.662Z,76.78
2022-10-11T00:49:42.826Z,76.77
2022-10-11T00:52:16.921Z,76.88
2022-10-11T00:54:45.035Z,76.29
2022-10-11T00:57:13.840Z,77.03
2022-10-11T00:59:43.041Z,77.02
2022-10-11T01:02:09.850Z,76.90
2022-10-11T01:04:36.220Z,76.86
2022-10-11T01:07:02.849Z,76.87
2022-10-11T01:09:29.678Z,77.32
2022-10-11T01:11:57.111Z,77.25
2022-10-11T01:14:34.495Z,76.99
2022-10-11T01:17:08.099Z,77.96
2022-10-11T01:19:43.572Z,77.82
2022-10-11T01:22:28.569Z,77.73
2022-10-11T01:25:05.918Z,77.60
2022-10-11T01:27:51.094Z,77.91
2022-10-11T01:30:21.733Z,77.53
2022-10-11T01:32:50.806Z,77.31
2022-10-11T01:35:23.297Z,77.47
2022-10-11T01:37:55.908Z,78.01
2022-10-11T01:40:24.679Z,77.72
2022-10-11T01:42:51.960Z,77.62
2022-10-11T01:45:19.525Z,77.67
2022-10-11T01:47:45.942Z,77.37
2022-10-11T01:50:34.205Z,77.18
2022-10-11T01:53:03.738Z,77.80
2022-10-11T01:55:34.587Z,77.55
2022-10-11T01:58:00.836Z,77.58
2022-10-11T02:00:31.225Z,77.55
2022-10-11T02:03:16.736Z,77.79
2022-10-11T02:05:46.042Z,77.96
2022-10-11T02:08:26.593Z,77.92
2022-10-11T02:11:06.668Z,77.33
2022-10-11T02:13:36.233Z,77.57
2022-10-11T02:16:06.076Z,77.93
2022-10-11T02:18:38.092Z,77.52
2022-10-11T02:21:06.441Z,77.97
2022-10-11T02:23:35.273Z,77.60
2022-10-11T02:26:04.720Z,77.67
2022-10-11T02:28:33.607Z,77.47
2022-10-11T02:31:01.415Z,77.24
2022-10-11T02:33:31.616Z,77.96
2022-10-11T02:36:01.061Z,78.49
2022-10-11T02:38:36.150Z,77.83
2022-10-11T02:41:21.222Z,77.89
2022-10-11T02:43:51.069Z,78.09
2022-10-11T02:46:17.911Z,77.38
2022-10-11T02:48:44.221Z,78.17
2022-10-11T02:51:14.029Z,78.16
2022-10-11T02:53:40.363Z,77.71
2022-10-11T02:56:07.247Z,78.04
2022-10-11T02:58:33.893Z,77.90
2022-10-11T03:01:00.214Z,77.46
2022-10-11T03:03:26.526Z,77.97
2022-10-11T03:05:57.680Z,78.17
2022-10-11T03:08:23.962Z,78.29
2022-10-11T03:10:50.368Z,78.09
2022-10-11T03:13:18.490Z,77.33
2022-10-11T03:16:01.940Z,77.37
2022-10-11T03:18:29.804Z,77.80
2022-10-11T03:20:56.146Z,77.41
2022-10-11T03:23:22.497Z,78.18
2022-10-11T03:25:48.808Z,77.42
2022-10-11T03:28:15.164Z,76.93
2022-10-11T03:30:41.523Z,76.72
2022-10-11T03:33:07.816Z,77.18
2022-10-11T03:35:34.140Z,77.35
2022-10-11T03:38:00.448Z,77.03
2022-10-11T03:40:26.729Z,77.08
2022-10-11T03:42:54.899Z,76.89
2022-10-11T03:45:21.260Z,76.56
2022-10-11T03:47:47.578Z,76.39
2022-10-11T03:50:13.885Z,76.54
2022-10-11T03:52:40.185Z,77.43
2022-10-11T03:55:07.210Z,76.91
2022-10-11T03:57:33.556Z,76.53
2022-10-11T03:59:59.877Z,76.18
2022-10-11T04:02:26.508Z,76.05
2022-10-11T04:04:52.805Z,75.90
2022-10-11T04:07:19.537Z,76.77
2022-10-11T04:09:45.904Z,76.76
2022-10-11T04:12:12.493Z,77.07
2022-10-11T04:14:38.818Z,77.39
2022-10-11T04:17:05.105Z,76.61
2022-10-11T04:19:31.466Z,77.03
2022-10-11T04:21:57.824Z,77.61
2022-10-11T04:24:24.142Z,77.76
2022-10-11T04:26:50.489Z,77.49
2022-10-11T04:29:16.800Z,77.39
2022-10-11T04:31:43.264Z,78.17
2022-10-11T04:34:09.560Z,78.20
2022-10-11T04:36:36.361Z,78.22
2022-10-11T04:39:03.595Z,78.00
2022-10-11T04:41:29.933Z,77.95
2022-10-11T04:43:56.264Z,77.86
2022-10-11T04:46:22.746Z,77.82
2022-10-11T04:48:49.270Z,78.13
2022-10-11T04:51:15.679Z,78.04
2022-10-11T04:53:42.204Z,78.33
2022-10-11T04:56:11.092Z,78.26
2022-10-11T04:58:40.616Z,77.80
2022-10-11T05:01:07.296Z,77.93
2022-10-11T05:03:33.705Z,77.93
2022-10-11T05:06:05.255Z,78.63
2022-10-11T05:08:32.164Z,78.50
2022-10-11T05:10:59.842Z,78.03
2022-10-11T05:13:26.557Z,78.26
2022-10-11T05:15:53.193Z,78.22
2022-10-11T05:18:19.594Z,78.61
2022-10-11T05:20:45.974Z,78.34
2022-10-11T05:23:12.279Z,78.28
2022-10-11T05:25:38.598Z,77.60
2022-10-11T05:28:05.127Z,77.34
2022-10-11T05:30:31.496Z,77.75
2022-10-11T05:32:57.783Z,77.47
2022-10-11T05:35:24.137Z,77.43
2022-10-11T05:37:50.528Z,78.04
2022-10-11T05:40:16.913Z,78.54
2022-10-11T05:42:43.190Z,77.86
2022-10-11T05:45:09.621Z,77.90
2022-10-11T05:47:35.913Z,77.34
2022-10-11T05:50:04.778Z,78.27
2022-10-11T05:52:31.256Z,78.27
2022-10-11T05:54:58.062Z,78.02
2022-10-11T05:57:24.452Z,77.93
2022-10-11T05:59:50.816Z,77.58
2022-10-11T06:02:17.134Z,78.09
2022-10-11T06:04:43.547Z,77.65
2022-10-11T06:07:09.824Z,77.40
2022-10-11T06:09:36.175Z,78.21
2022-10-11T06:12:02.642Z,78.95
2022-10-11T06:14:32.258Z,78.65
2022-10-11T06:16:58.586Z,78.34
2022-10-11T06:19:24.958Z,78.68
2022-10-11T06:21:51.449Z,77.80
2022-10-11T06:24:17.736Z,78.33
2022-10-11T06:26:44.056Z,77.79
2022-10-11T06:29:10.356Z,78.22
2022-10-11T06:31:36.696Z,78.39
2022-10-11T06:34:03.002Z,77.90
2022-10-11T06:36:29.823Z,77.37
2022-10-11T06:38:56.229Z,77.67
2022-10-11T06:41:24.116Z,77.83
2022-10-11T06:43:50.827Z,77.17
2022-10-11T06:46:18.253Z,77.72
2022-10-11T06:48:45.593Z,76.75
2022-10-11T06:51:13.531Z,76.58
2022-10-11T06:53:40.493Z,77.20
2022-10-11T06:56:11.795Z,77.58
2022-10-11T06:58:38.708Z,77.39
2022-10-11T07:01:12.641Z,77.24
2022-10-11T07:03:39.377Z,78.12
2022-10-11T07:06:07.489Z,77.21
2022-10-11T07:08:34.732Z,76.75
2022-10-11T07:11:02.695Z,76.75
2022-10-11T07:13:32.098Z,76.88
2022-10-11T07:16:06.039Z,77.46
2022-10-11T07:18:32.676Z,76.88
2022-10-11T07:21:04.567Z,77.74
2022-10-11T07:23:30.975Z,77.49
2022-10-11T07:25:57.387Z,77.46
2022-10-11T07:28:23.964Z,77.16
2022-10-11T07:30:50.601Z,77.83
2022-10-11T07:33:17.422Z,77.42
2022-10-11T07:35:48.188Z,77.52
2022-10-11T07:38:15.031Z,77.66
2022-10-11T07:40:42.887Z,77.56
2022-10-11T07:43:09.934Z,77.69
2022-10-11T07:45:40.073Z,77.77
2022-10-11T07:48:06.661Z,77.70
2022-10-11T07:50:33.470Z,78.05
2022-10-11T07:53:00.000Z,77.82
2022-10-11T07:55:27.669Z,77.50
2022-10-11T07:57:56.928Z,77.95
2022-10-11T08:00:23.668Z,77.84
2022-10-11T08:02:50.141Z,78.54
2022-10-11T08:05:17.126Z,78.47
2022-10-11T08:07:43.501Z,78.27
2022-10-11T08:10:10.568Z,78.12
2022-10-11T08:12:37.061Z,77.93
2022-10-11T08:15:03.615Z,77.78
2022-10-11T08:17:30.123Z,77.92
2022-10-11T08:19:58.043Z,78.10
2022-10-11T08:22:24.433Z,78.35
2022-10-11T08:24:50.986Z,78.11
2022-10-11T08:27:17.370Z,78.16
2022-10-11T08:29:44.063Z,76.84
2022-10-11T08:32:12.112Z,77.00
2022-10-11T08:34:38.624Z,76.76
2022-10-11T08:37:05.215Z,77.22
2022-10-11T08:39:31.557Z,77.19
2022-10-11T08:42:04.971Z,76.68
2022-10-11T08:47:35.570Z,76.52
2022-10-11T08:50:03.624Z,76.22
2022-10-11T08:52:38.877Z,76.37
2022-10-11T08:55:10.815Z,75.49
2022-10-11T08:57:39.026Z,74.79
2022-10-11T09:00:07.243Z,73.98
2022-10-11T09:03:09.249Z,73.67
2022-10-11T09:05:39.415Z,73.45
2022-10-11T09:08:29.118Z,73.65
2022-10-11T09:11:05.166Z,73.64
2022-10-11T09:13:35.705Z,72.74
2022-10-11T09:16:12.488Z,72.44
2022-10-11T09:19:01.810Z,71.60
2022-10-11T09:21:34.548Z,71.14
2022-10-11T09:24:11.557Z,70.17
2022-10-11T09:26:59.392Z,69.38
2022-10-11T09:29:28.800Z,68.42
2022-10-11T09:31:55.965Z,68.32
2022-10-11T09:34:24.899Z,64.36
2022-10-11T09:36:57.313Z,65.29
2022-10-11T09:39:37.876Z,63.69
2022-10-11T09:42:11.390Z,63.45
2022-10-11T09:44:37.753Z,60.29
2022-10-11T09:47:05.363Z,58.94
2022-10-11T09:49:35.738Z,59.62
2022-10-11T09:52:03.026Z,58.00
2022-10-11T09:54:43.701Z,52.93
2022-10-11T09:57:18.695Z,55.20
2022-10-11T09:59:56.904Z,54.25
2022-10-11T10:02:23.898Z,51.90
2022-10-11T10:04:53.269Z,50.64
2022-10-11T10:07:20.304Z,50.90
2022-10-11T10:09:46.807Z,49.35
2022-10-11T10:12:14.467Z,49.19
2022-10-11T10:14:41.368Z,48.50
2022-10-11T10:17:15.499Z,47.76
2022-10-11T10:19:53.509Z,44.91
2022-10-11T10:22:25.369Z,45.55
2022-10-11T10:24:52.217Z,46.52
2022-10-11T10:27:31.291Z,45.85
2022-10-11T10:30:09.898Z,46.44
2022-10-11T10:32:37.840Z,45.83
2022-10-11T10:35:27.406Z,45.84
2022-10-11T10:38:15.384Z,42.48
2022-10-11T10:40:52.465Z,43.26
2022-10-11T10:43:20.477Z,41.94
2022-10-11T10:46:10.042Z,41.90
2022-10-11T10:49:28.323Z,43.70
2022-10-11T10:51:38.316Z,42.08
2022-10-11T10:54:23.372Z,40.85
2022-10-11T10:56:51.778Z,42.16
2022-10-11T10:59:34.537Z,41.74
2022-10-11T11:02:35.055Z,41.70
2022-10-11T11:05:04.508Z,39.33
2022-10-11T11:07:38.851Z,41.38
2022-10-11T11:10:16.568Z,41.49
2022-10-11T11:12:46.130Z,41.91
2022-10-11T11:15:16.727Z,38.58
2022-10-11T11:17:55.352Z,40.48
2022-10-11T11:20:33.634Z,39.39
2022-10-11T11:23:00.616Z,37.33
2022-10-11T11:25:47.357Z,41.39
2022-10-11T11:28:23.411Z,39.72
2022-10-11T11:30:52.901Z,37.83
2022-10-11T11:33:19.404Z,36.23
2022-10-11T11:35:48.372Z,38.77
2022-10-11T11:38:20.320Z,38.85
2022-10-11T11:40:49.634Z,38.57
2022-10-11T11:43:26.015Z,39.40
2022-10-11T11:45:58.967Z,39.26
2022-10-11T11:48:26.241Z,38.79
2022-10-11T11:51:01.727Z,36.75
2022-10-11T11:53:50.770Z,35.32
2022-10-11T11:56:19.918Z,37.26
2022-10-11T11:59:12.984Z,38.16
2022-10-11T12:01:39.372Z,37.62
2022-10-11T12:04:31.816Z,37.42
2022-10-11T12:07:15.294Z,37.43
2022-10-11T12:09:44.174Z,36.79
2022-10-11T12:12:28.988Z,36.07
2022-10-11T12:15:15.872Z,38.64
2022-10-11T12:18:02.478Z,38.53
2022-10-11T12:20:33.723Z,39.88
2022-10-11T12:23:20.060Z,38.38
2022-10-11T12:26:06.577Z,38.66
2022-10-11T12:28:42.285Z,38.52
2022-10-11T12:31:20.855Z,38.81
2022-10-11T12:33:47.243Z,38.32
2022-10-11T12:36:31.669Z,37.26
2022-10-11T12:39:16.796Z,37.60
2022-10-11T12:41:49.805Z,35.81
2022-10-11T12:44:19.606Z,37.17
2022-10-11T12:46:55.058Z,36.54
2022-10-11T12:49:28.371Z,37.06
2022-10-11T12:52:06.997Z,37.03
2022-10-11T12:55:02.662Z,37.04
2022-10-11T12:57:47.650Z,35.18
2022-10-11T13:00:23.605Z,35.29
2022-10-11T13:02:50.090Z,36.69
2022-10-11T13:05:25.644Z,36.79
2022-10-11T13:07:54.462Z,35.98
2022-10-11T13:10:43.474Z,37.60
2022-10-11T13:13:14.462Z,35.89
2022-10-11T13:15:42.020Z,37.49
2022-10-11T13:18:12.974Z,37.03
2022-10-11T13:20:41.791Z,36.72
2022-10-11T13:23:27.959Z,36.54
2022-10-11T13:25:55.319Z,35.77
2022-10-11T13:28:23.331Z,37.36
2022-10-11T13:30:52.788Z,37.29
2022-10-11T13:33:21.498Z,36.81
2022-10-11T13:35:48.142Z,35.57
2022-10-11T13:38:19.834Z,36.05
2022-10-11T13:40:50.119Z,36.53
2022-10-11T13:43:20.460Z,36.39
2022-10-11T13:45:47.113Z,36.16
2022-10-11T13:48:14.561Z,36.71
2022-10-11T13:50:45.868Z,36.93
2022-10-11T13:53:12.248Z,36.72
2022-10-11T13:55:41.676Z,37.46
2022-10-11T13:58:18.521Z,36.59
2022-10-11T14:00:53.422Z,37.35
2022-10-11T14:03:21.190Z,37.52
2022-10-11T14:05:58.848Z,37.60
2022-10-11T14:08:34.606Z,38.47
2022-10-11T14:11:06.312Z,38.90
2022-10-11T14:13:35.274Z,39.49
2022-10-11T14:16:06.930Z,39.63
2022-10-11T14:18:36.610Z,39.65
2022-10-11T14:21:21.819Z,40.76
2022-10-11T14:23:52.433Z,40.73
2022-10-11T14:26:19.281Z,40.98
2022-10-11T14:28:46.143Z,40.29
2022-10-11T14:31:12.591Z,40.44
2022-10-11T14:33:38.970Z,40.44
2022-10-11T14:36:05.579Z,39.65
2022-10-11T14:38:34.571Z,39.72
2022-10-11T14:41:00.879Z,39.25
2022-10-11T14:43:27.190Z,39.62
2022-10-11T14:45:53.550Z,41.01
2022-10-11T14:48:43.145Z,40.36
2022-10-11T14:51:06.671Z,41.15
2022-10-11T14:53:35.346Z,41.31
2022-10-11T14:56:04.163Z,41.55
2022-10-11T14:58:30.739Z,41.95
2022-10-11T15:00:57.107Z,42.38
2022-10-11T15:03:23.716Z,42.67
2022-10-11T15:05:50.165Z,42.79
2022-10-11T15:08:16.605Z,43.21
2022-10-11T15:10:42.964Z,43.80
2022-10-11T15:13:09.700Z,44.82
2022-10-11T15:15:36.901Z,46.29
2022-10-11T15:18:04.739Z,45.85
2022-10-11T15:20:32.758Z,46.23
2022-10-11T15:22:59.506Z,45.54
2022-10-11T15:25:26.982Z,47.12
2022-10-11T15:27:53.510Z,46.80
2022-10-11T15:30:24.394Z,47.71
2022-10-11T15:32:50.968Z,45.93
2022-10-11T15:35:17.883Z,47.31
2022-10-11T15:37:44.613Z,47.31
2022-10-11T15:40:25.120Z,46.75
2022-10-11T15:42:51.862Z,47.65
2022-10-11T15:45:19.380Z,48.79
2022-10-11T15:47:46.278Z,48.87
2022-10-11T15:50:23.859Z,47.63
2022-10-11T15:52:51.072Z,48.08
2022-10-11T15:55:17.750Z,50.00
2022-10-11T15:57:44.097Z,50.12
2022-10-11T16:00:10.618Z,48.67
2022-10-11T16:02:37.271Z,50.08
2022-10-11T16:05:04.648Z,49.88
2022-10-11T16:07:31.207Z,50.00
2022-10-11T16:09:57.628Z,49.82
2022-10-11T16:12:24.183Z,49.50
2022-10-11T16:14:50.492Z,50.16
2022-10-11T16:17:16.822Z,50.97
2022-10-11T16:19:43.208Z,52.80
2022-10-11T16:22:09.565Z,51.33
2022-10-11T16:24:36.022Z,51.84
2022-10-11T16:27:02.366Z,51.67
2022-10-11T16:29:28.871Z,52.45
2022-10-11T16:31:55.179Z,52.83
2022-10-11T16:34:21.585Z,53.09
2022-10-11T16:36:47.873Z,54.47
2022-10-11T16:39:18.282Z,53.94
2022-10-11T16:41:45.115Z,54.90
2022-10-11T16:44:15.676Z,54.34
2022-10-11T16:46:42.118Z,54.62
2022-10-11T16:49:08.518Z,54.20
2022-10-11T16:51:34.851Z,55.59
2022-10-11T16:54:01.143Z,55.09
2022-10-11T16:56:27.536Z,55.96
2022-10-11T16:58:54.191Z,56.86
2022-10-11T17:01:20.957Z,57.10
2022-10-11T17:03:48.209Z,55.47
2022-10-11T17:06:14.509Z,56.56
2022-10-11T17:08:40.934Z,57.67
2022-10-11T17:11:07.275Z,56.82
2022-10-11T17:13:33.611Z,56.68
2022-10-11T17:16:00.124Z,57.02
2022-10-11T17:18:26.438Z,57.67
2022-10-11T17:21:06.722Z,57.74
2022-10-11T17:23:33.967Z,58.80
2022-10-11T17:26:02.590Z,60.27
2022-10-11T17:28:34.356Z,58.64
2022-10-11T17:31:00.874Z,59.49
2022-10-11T17:33:27.771Z,59.64
2022-10-11T17:35:54.937Z,61.38
2022-10-11T17:38:22.221Z,60.25
2022-10-11T17:40:57.869Z,59.26
2022-10-11T17:43:24.152Z,59.59
2022-10-11T17:45:54.447Z,59.34
2022-10-11T17:48:20.768Z,60.05
2022-10-11T17:50:50.507Z,60.34
2022-10-11T17:53:17.157Z,60.65
2022-10-11T17:55:43.987Z,61.00
2022-10-11T17:58:11.328Z,61.00
2022-10-11T18:00:38.507Z,60.31
2022-10-11T18:03:05.105Z,60.54
2022-10-11T18:05:31.491Z,61.28
2022-10-11T18:07:57.860Z,62.95
2022-10-11T18:10:24.204Z,62.77
2022-10-11T18:12:54.341Z,63.55
2022-10-11T18:15:20.684Z,64.32
2022-10-11T18:17:49.678Z,64.43
2022-10-11T18:20:16.031Z,64.90
2022-10-11T18:22:42.442Z,63.03
2022-10-11T18:25:09.480Z,63.10
2022-10-11T18:27:35.870Z,62.76
2022-10-11T18:30:02.252Z,61.85
2022-10-11T18:32:28.542Z,63.66
2022-10-11T18:34:55.769Z,63.02
2022-10-11T18:37:22.122Z,63.48
2022-10-11T18:39:48.774Z,64.02
2022-10-11T18:42:15.598Z,62.87
2022-10-11T18:44:41.971Z,62.49
2022-10-11T18:47:08.370Z,62.95
2022-10-11T18:49:34.692Z,63.60
2022-10-11T18:52:00.985Z,63.93
2022-10-11T18:54:27.409Z,63.61
2022-10-11T18:56:53.707Z,64.24
2022-10-11T18:59:20.301Z,65.92
2022-10-11T19:01:46.811Z,64.96
2022-10-11T19:04:15.734Z,65.14
2022-10-11T19:06:43.685Z,65.18
2022-10-11T19:09:12.083Z,64.11
2022-10-11T19:11:38.862Z,64.46
2022-10-11T19:14:07.068Z,64.81
2022-10-11T19:16:34.036Z,66.66
2022-10-11T19:19:00.353Z,65.97
2022-10-11T19:21:26.674Z,66.53
2022-10-11T19:23:54.746Z,65.57
2022-10-11T19:26:22.229Z,65.35
2022-10-11T19:28:49.083Z,65.80
2022-10-11T19:31:17.052Z,64.69
2022-10-11T19:33:44.760Z,65.37
2022-10-11T19:36:12.641Z,66.71
2022-10-11T19:38:39.013Z,66.34
2022-10-11T19:41:05.426Z,67.01
2022-10-11T19:43:31.957Z,66.70
2022-10-11T19:46:05.630Z,66.84
2022-10-11T19:48:32.386Z,67.28
2022-10-11T19:51:15.576Z,67.42
2022-10-11T19:53:42.790Z,66.85
2022-10-11T19:56:10.373Z,67.95
2022-10-11T19:58:36.821Z,66.56
2022-10-11T20:01:09.969Z,66.50
2022-10-11T20:03:36.827Z,67.82
2022-10-11T20:06:04.423Z,68.06
2022-10-11T20:08:31.529Z,67.54
2022-10-11T20:10:58.920Z,66.79
2022-10-11T20:13:25.737Z,66.61
2022-10-11T20:15:56.941Z,67.54
2022-10-11T20:18:23.428Z,67.53
2022-10-11T20:20:53.365Z,68.44
2022-10-11T20:23:25.088Z,68.79
2022-10-11T20:26:11.998Z,68.39
2022-10-11T20:28:38.768Z,67.95
2022-10-11T20:31:10.604Z,67.21
2022-10-11T20:33:39.684Z,68.81
2022-10-11T20:36:07.392Z,67.86
2022-10-11T20:38:34.635Z,67.39
2022-10-11T20:41:05.357Z,67.61
2022-10-11T20:43:31.669Z,67.35
2022-10-11T20:46:14.237Z,67.95
2022-10-11T20:48:41.266Z,67.64
2022-10-11T20:51:08.781Z,68.44
2022-10-11T20:53:35.784Z,69.63
2022-10-11T20:56:02.125Z,69.66
2022-10-11T20:58:28.443Z,69.42
2022-10-11T21:00:54.756Z,68.80
2022-10-11T21:03:21.678Z,68.71
2022-10-11T21:05:48.639Z,67.89
2022-10-11T21:08:15.648Z,69.13
2022-10-11T21:10:53.644Z,68.78
2022-10-11T21:13:20.391Z,68.75
2022-10-11T21:15:46.810Z,69.33
2022-10-11T21:18:13.354Z,70.35
2022-10-11T21:20:40.044Z,70.53
2022-10-11T21:23:06.429Z,70.51
2022-10-11T21:25:33.448Z,70.94
2022-10-11T21:27:59.745Z,70.06
2022-10-11T21:30:26.098Z,69.90
2022-10-11T21:32:57.165Z,69.69
2022-10-11T21:35:24.422Z,68.82
2022-10-11T21:37:51.791Z,68.91
2022-10-11T21:40:18.213Z,69.31
2022-10-11T21:42:44.760Z,69.73
2022-10-11T21:45:11.130Z,69.17
2022-10-11T21:47:39.214Z,69.69
2022-10-11T21:50:05.988Z,70.29
2022-10-11T21:52:32.803Z,69.50
2022-10-11T21:54:59.304Z,70.76
2022-10-11T21:57:25.679Z,71.89
2022-10-11T21:59:52.132Z,70.58
2022-10-11T22:02:18.491Z,70.12
2022-10-11T22:04:44.912Z,69.70
2022-10-11T22:07:11.337Z,68.73
2022-10-11T22:09:38.675Z,69.27
2022-10-11T22:12:05.460Z,69.55
2022-10-11T22:14:31.868Z,69.24
2022-10-11T22:16:58.478Z,70.60
2022-10-11T22:19:25.126Z,69.56
2022-10-11T22:21:51.721Z,69.13
2022-10-11T22:24:18.149Z,68.97
2022-10-11T22:26:44.829Z,69.95
2022-10-11T22:29:11.148Z,70.46
2022-10-11T22:31:37.465Z,69.92
2022-10-11T22:34:03.904Z,70.63
2022-10-11T22:36:30.722Z,69.88
2022-10-11T22:38:57.256Z,69.92
2022-10-11T22:41:23.645Z,70.65
2022-10-11T22:43:50.244Z,70.21
2022-10-11T22:46:17.449Z,70.40
2022-10-11T22:48:44.205Z,70.09
2022-10-11T22:51:10.554Z,70.29
2022-10-11T22:53:36.887Z,70.86
2022-10-11T22:56:03.485Z,70.50
2022-10-11T22:58:29.757Z,70.17
2022-10-11T23:00:56.186Z,70.93
2022-10-11T23:03:23.086Z,71.94
2022-10-11T23:05:57.205Z,71.83
2022-10-11T23:08:24.763Z,72.98
2022-10-11T23:10:51.108Z,72.86
2022-10-11T23:13:18.133Z,71.90
2022-10-11T23:15:44.541Z,71.16
2022-10-11T23:18:11.229Z,71.98
2022-10-11T23:20:38.006Z,70.91
2022-10-11T23:23:05.570Z,71.27
2022-10-11T23:25:32.249Z,72.63
2022-10-11T23:28:02.032Z,71.52
2022-10-11T23:30:29.240Z,72.04
2022-10-11T23:32:56.071Z,72.81
2022-10-11T23:35:22.468Z,72.10
2022-10-11T23:37:49.309Z,72.22
2022-10-11T23:40:15.914Z,71.38
2022-10-11T23:42:42.515Z,72.16
2022-10-11T23:45:10.279Z,71.39
2022-10-11T23:47:37.329Z,72.79
2022-10-11T23:50:04.121Z,72.12
2022-10-11T23:52:30.649Z,72.72
2022-10-11T23:54:57.009Z,72.18
2022-10-11T23:57:23.412Z,71.36
2022-10-11T23:59:49.746Z,71.67
